createdAt,value
2019-05-22T00:01:16.457Z,47.33
2019-05-22T00:03:57.655Z,45.93
2019-05-22T00:06:25.924Z,47.47
2019-05-22T00:08:52.404Z,48.27
2019-05-22T00:11:20.678Z,48.13
2019-05-22T00:13:47.114Z,46.83
2019-05-22T00:16:14.567Z,48.43
2019-05-22T00:18:42.020Z,48.97
2019-05-22T00:21:09.109Z,48.40
2019-05-22T00:23:38.026Z,49.57
2019-05-22T00:26:04.956Z,49.30
2019-05-22T00:28:31.632Z,47.70
2019-05-22T00:30:58.190Z,48.50
2019-05-22T00:33:25.530Z,50.60
2019-05-22T00:35:53.082Z,50.60
2019-05-22T00:38:21.338Z,51.37
2019-05-22T00:40:51.875Z,50.60
2019-05-22T00:43:20.090Z,51.27
2019-05-22T00:45:49.519Z,49.13
2019-05-22T00:48:20.236Z,49.60
2019-05-22T00:50:48.843Z,45.90
2019-05-22T00:53:26.364Z,45.23
2019-05-22T00:55:56.648Z,44.10
2019-05-22T00:58:39.960Z,42.37
2019-05-22T01:01:13.541Z,41.37
2019-05-22T01:03:39.696Z,41.17
2019-05-22T01:06:07.864Z,41.13
2019-05-22T01:08:36.085Z,40.60
2019-05-22T01:11:05.710Z,43.97
2019-05-22T01:13:34.030Z,44.53
2019-05-22T01:16:01.046Z,44.07
2019-05-22T01:18:27.778Z,43.33
2019-05-22T01:20:57.583Z,40.57
2019-05-22T01:23:24.162Z,41.30
2019-05-22T01:25:51.308Z,38.97
2019-05-22T01:28:19.152Z,38.37
2019-05-22T01:30:57.286Z,37.20
2019-05-22T01:33:31.975Z,37.17
2019-05-22T01:36:01.013Z,36.80
2019-05-22T01:38:28.273Z,37.00
2019-05-22T01:40:56.592Z,34.93
2019-05-22T01:43:25.406Z,34.30
2019-05-22T01:45:54.385Z,35.23
2019-05-22T01:48:35.229Z,36.77
2019-05-22T01:51:04.801Z,37.60
2019-05-22T01:53:36.978Z,38.60
2019-05-22T01:56:06.563Z,38.80
2019-05-22T01:58:34.058Z,35.80
2019-05-22T02:01:02.392Z,37.13
2019-05-22T02:03:30.382Z,36.27
2019-05-22T02:05:57.421Z,35.90
2019-05-22T02:08:24.327Z,35.47
2019-05-22T02:10:53.724Z,33.70
2019-05-22T02:13:25.030Z,30.67
2019-05-22T02:15:53.211Z,31.10
2019-05-22T02:18:22.444Z,32.53
2019-05-22T02:20:49.440Z,31.20
2019-05-22T02:23:16.353Z,28.60
2019-05-22T02:25:42.975Z,28.30
2019-05-22T02:28:09.386Z,27.47
2019-05-22T02:30:37.570Z,27.40
2019-05-22T02:33:03.886Z,27.13
2019-05-22T02:35:30.438Z,27.13
2019-05-22T02:37:58.181Z,28.00
2019-05-22T02:40:28.149Z,28.07
2019-05-22T02:42:54.733Z,28.37
2019-05-22T02:45:21.546Z,29.50
2019-05-22T02:47:49.672Z,27.93
2019-05-22T02:50:15.970Z,29.53
2019-05-22T02:52:42.425Z,28.00
2019-05-22T02:55:10.030Z,28.07
2019-05-22T02:57:36.272Z,28.83
2019-05-22T03:00:04.275Z,27.00
2019-05-22T03:02:36.993Z,26.27
2019-05-22T03:05:06.628Z,25.90
2019-05-22T03:07:33.253Z,25.90
2019-05-22T03:10:01.081Z,25.40
2019-05-22T03:12:29.845Z,25.60
2019-05-22T03:14:56.089Z,24.67
2019-05-22T03:17:27.705Z,25.40
2019-05-22T03:19:57.233Z,26.30
2019-05-22T03:22:37.089Z,26.67
2019-05-22T03:25:06.587Z,24.80
2019-05-22T03:27:44.583Z,25.67
2019-05-22T03:30:26.174Z,26.70
2019-05-22T03:32:53.746Z,27.20
2019-05-22T03:35:21.870Z,27.33
2019-05-22T03:37:48.417Z,27.37
2019-05-22T03:40:15.026Z,26.07
2019-05-22T03:42:42.069Z,26.23
2019-05-22T03:45:10.215Z,25.60
2019-05-22T03:47:36.538Z,26.27
2019-05-22T03:50:06.598Z,26.50
2019-05-22T03:52:33.923Z,26.23
2019-05-22T03:55:00.124Z,26.43
2019-05-22T03:57:26.437Z,27.53
2019-05-22T03:59:54.186Z,26.87
2019-05-22T04:02:21.167Z,26.33
2019-05-22T04:04:48.553Z,26.73
2019-05-22T04:07:16.402Z,26.80
2019-05-22T04:09:44.572Z,26.00
2019-05-22T04:12:12.777Z,25.33
2019-05-22T04:14:39.510Z,25.70
2019-05-22T04:17:08.414Z,24.43
2019-05-22T04:19:48.383Z,23.43
2019-05-22T04:22:03.966Z,24.10
2019-05-22T04:24:31.579Z,22.50
2019-05-22T04:26:59.329Z,23.40
2019-05-22T04:29:25.870Z,24.53
2019-05-22T04:31:59.671Z,22.40
2019-05-22T04:34:26.527Z,22.60
2019-05-22T04:36:53.365Z,21.33
2019-05-22T04:39:21.590Z,21.57
2019-05-22T04:41:48.956Z,20.87
2019-05-22T04:44:15.288Z,19.03
2019-05-22T04:46:42.321Z,18.73
2019-05-22T04:49:08.602Z,18.20
2019-05-22T04:51:34.821Z,16.50
2019-05-22T04:54:01.126Z,17.17
2019-05-22T04:56:27.553Z,17.00
2019-05-22T04:58:55.277Z,15.40
2019-05-22T05:01:22.390Z,13.67
2019-05-22T05:03:49.440Z,12.83
2019-05-22T05:06:17.503Z,11.60
2019-05-22T05:08:44.953Z,10.77
2019-05-22T05:11:11.335Z,10.60
2019-05-22T05:13:37.577Z,10.30
2019-05-22T05:16:04.138Z,10.67
2019-05-22T05:18:30.958Z,10.67
2019-05-22T05:20:57.236Z,10.10
2019-05-22T05:23:23.686Z,10.00
2019-05-22T05:25:49.994Z,9.47
2019-05-22T05:28:16.863Z,9.90
2019-05-22T05:30:43.476Z,10.27
2019-05-22T05:33:10.551Z,10.20
2019-05-22T05:35:37.287Z,10.53
2019-05-22T05:38:04.655Z,11.00
2019-05-22T05:40:39.787Z,10.47
2019-05-22T05:43:08.553Z,11.70
2019-05-22T05:45:38.009Z,11.70
2019-05-22T05:48:07.110Z,12.13
2019-05-22T05:50:40.148Z,11.83
2019-05-22T05:53:06.001Z,12.10
2019-05-22T05:55:38.896Z,12.23
2019-05-22T05:58:27.045Z,11.93
2019-05-22T06:01:06.706Z,12.40
2019-05-22T06:03:39.085Z,12.60
2019-05-22T06:06:22.393Z,12.70
2019-05-22T06:08:49.509Z,14.07
2019-05-22T06:11:32.227Z,13.90
2019-05-22T06:14:00.328Z,14.03
2019-05-22T06:16:50.354Z,15.67
2019-05-22T06:19:17.663Z,14.50
2019-05-22T06:21:43.763Z,15.67
2019-05-22T06:24:35.682Z,15.80
2019-05-22T06:27:10.294Z,16.93
2019-05-22T06:29:46.874Z,16.77
2019-05-22T06:32:36.869Z,16.60
2019-05-22T06:35:07.536Z,15.37
2019-05-22T06:38:00.608Z,15.30
2019-05-22T06:40:27.553Z,14.53
2019-05-22T06:43:30.611Z,14.33
2019-05-22T06:45:57.043Z,14.67
2019-05-22T06:48:23.394Z,13.47
2019-05-22T06:50:50.928Z,12.87
2019-05-22T06:53:17.433Z,12.97
2019-05-22T06:55:43.757Z,13.73
2019-05-22T06:58:10.689Z,13.10
2019-05-22T07:00:37.520Z,14.80
2019-05-22T07:03:04.822Z,13.37
2019-05-22T07:05:31.376Z,14.47
2019-05-22T07:07:58.153Z,13.27
2019-05-22T07:10:25.473Z,14.10
2019-05-22T07:12:53.725Z,14.23
2019-05-22T07:15:21.165Z,15.03
2019-05-22T07:17:48.701Z,14.40
2019-05-22T07:20:15.708Z,14.50
2019-05-22T07:22:42.442Z,13.47
2019-05-22T07:25:11.007Z,13.27
2019-05-22T07:27:37.655Z,13.87
2019-05-22T07:30:06.967Z,13.53
2019-05-22T07:32:33.491Z,12.80
2019-05-22T07:35:00.277Z,13.53
2019-05-22T07:37:27.194Z,14.13
2019-05-22T07:39:53.642Z,13.23
2019-05-22T07:42:19.989Z,12.73
2019-05-22T07:44:46.392Z,12.23
2019-05-22T07:47:16.920Z,12.53
2019-05-22T07:49:43.778Z,13.60
2019-05-22T07:52:10.806Z,13.07
2019-05-22T07:54:38.037Z,11.47
2019-05-22T07:57:05.727Z,11.50
2019-05-22T07:59:32.152Z,11.10
2019-05-22T08:01:59.321Z,10.03
2019-05-22T08:04:30.939Z,10.07
2019-05-22T08:06:57.231Z,9.37
2019-05-22T08:09:25.285Z,9.53
2019-05-22T08:11:51.814Z,9.77
2019-05-22T08:14:21.586Z,8.90
2019-05-22T08:16:48.064Z,8.73
2019-05-22T08:19:14.372Z,7.90
2019-05-22T08:21:41.211Z,7.70
2019-05-22T08:24:08.590Z,7.43
2019-05-22T08:26:51.599Z,7.33
2019-05-22T08:29:04.285Z,7.13
2019-05-22T08:31:31.534Z,7.87
2019-05-22T08:33:58.122Z,7.60
2019-05-22T08:36:24.630Z,7.70
2019-05-22T08:38:52.061Z,9.67
2019-05-22T08:41:22.035Z,8.97
2019-05-22T08:44:14.612Z,10.70
2019-05-22T08:46:17.214Z,11.93
2019-05-22T08:48:48.245Z,12.33
2019-05-22T08:51:13.716Z,12.73
2019-05-22T08:53:47.618Z,12.13
2019-05-22T08:56:10.186Z,12.47
2019-05-22T08:58:38.998Z,12.53
2019-05-22T09:01:06.529Z,12.40
2019-05-22T09:03:32.943Z,12.33
2019-05-22T09:05:59.254Z,10.90
2019-05-22T09:08:25.537Z,11.13
2019-05-22T09:10:51.830Z,11.40
2019-05-22T09:13:19.049Z,10.27
2019-05-22T09:15:47.380Z,11.00
2019-05-22T09:18:14.428Z,9.97
2019-05-22T09:20:49.185Z,10.47
2019-05-22T09:23:10.895Z,9.70
2019-05-22T09:25:37.855Z,10.43
2019-05-22T09:28:04.280Z,9.00
2019-05-22T09:30:31.136Z,8.77
2019-05-22T09:32:59.133Z,8.47
2019-05-22T09:35:26.041Z,8.13
2019-05-22T09:37:52.617Z,8.43
2019-05-22T09:40:18.932Z,8.97
2019-05-22T09:42:45.654Z,8.33
2019-05-22T09:45:12.104Z,8.40
2019-05-22T09:47:41.259Z,7.97
2019-05-22T09:50:08.883Z,9.30
2019-05-22T09:52:35.403Z,8.77
2019-05-22T09:55:02.425Z,8.93
2019-05-22T09:57:29.399Z,8.40
2019-05-22T09:59:55.578Z,8.10
2019-05-22T10:02:23.271Z,8.33
2019-05-22T10:04:49.758Z,8.17
2019-05-22T10:07:15.969Z,8.70
2019-05-22T10:09:42.382Z,8.07
2019-05-22T10:12:09.211Z,7.87
2019-05-22T10:14:36.214Z,8.40
2019-05-22T10:17:02.566Z,9.47
2019-05-22T10:19:30.015Z,9.23
2019-05-22T10:21:57.505Z,10.00
2019-05-22T10:24:23.939Z,10.23
2019-05-22T10:26:50.854Z,10.33
2019-05-22T10:29:17.713Z,10.33
2019-05-22T10:31:44.851Z,10.47
2019-05-22T10:34:11.148Z,11.27
2019-05-22T10:36:37.482Z,9.27
2019-05-22T10:39:06.103Z,10.27
2019-05-22T10:41:32.818Z,10.00
2019-05-22T10:43:59.244Z,10.30
2019-05-22T10:46:26.078Z,9.60
2019-05-22T10:48:52.986Z,9.20
2019-05-22T10:51:19.268Z,9.00
2019-05-22T10:53:46.373Z,10.07
2019-05-22T10:56:13.145Z,9.77
2019-05-22T10:58:39.455Z,9.43
2019-05-22T11:01:06.799Z,9.97
2019-05-22T11:03:33.367Z,10.27
2019-05-22T11:06:07.205Z,10.37
2019-05-22T11:08:33.510Z,10.10
2019-05-22T11:10:57.230Z,10.40
2019-05-22T11:13:23.890Z,9.70
2019-05-22T11:15:50.961Z,9.73
2019-05-22T11:18:17.582Z,10.27
2019-05-22T11:20:43.720Z,9.63
2019-05-22T11:23:11.035Z,10.70
2019-05-22T11:25:37.367Z,10.60
2019-05-22T11:28:03.736Z,9.77
2019-05-22T11:30:30.651Z,9.83
2019-05-22T11:32:57.536Z,9.17
2019-05-22T11:35:24.696Z,8.67
2019-05-22T11:37:51.192Z,8.57
2019-05-22T11:40:18.829Z,9.20
2019-05-22T11:42:45.765Z,9.17
2019-05-22T11:45:13.548Z,8.40
2019-05-22T11:47:40.494Z,8.40
2019-05-22T11:50:09.869Z,7.30
2019-05-22T11:52:36.098Z,6.90
2019-05-22T11:55:05.135Z,7.50
2019-05-22T11:57:32.034Z,6.83
2019-05-22T11:59:58.637Z,6.90
2019-05-22T12:02:24.926Z,6.70
2019-05-22T12:04:51.582Z,6.60
2019-05-22T12:07:18.878Z,5.90
2019-05-22T12:09:45.667Z,6.47
2019-05-22T12:12:12.152Z,6.70
2019-05-22T12:14:38.657Z,6.27
2019-05-22T12:17:06.071Z,6.60
2019-05-22T12:19:32.293Z,6.17
2019-05-22T12:21:58.421Z,6.60
2019-05-22T12:24:29.326Z,6.53
2019-05-22T12:26:53.906Z,6.47
2019-05-22T12:29:20.814Z,6.43
2019-05-22T12:31:47.269Z,6.13
2019-05-22T12:34:13.692Z,7.07
2019-05-22T12:36:40.153Z,6.43
2019-05-22T12:39:07.584Z,6.33
2019-05-22T12:41:34.379Z,7.37
2019-05-22T12:44:00.714Z,6.77
2019-05-22T12:46:27.648Z,6.60
2019-05-22T12:48:53.849Z,6.23
2019-05-22T12:51:20.485Z,6.67
2019-05-22T12:53:47.181Z,6.30
2019-05-22T12:56:14.097Z,6.20
2019-05-22T12:58:40.939Z,7.13
2019-05-22T13:01:07.755Z,6.83
2019-05-22T13:03:34.149Z,7.03
2019-05-22T13:06:00.472Z,6.87
2019-05-22T13:08:28.098Z,7.07
2019-05-22T13:10:54.635Z,6.70
2019-05-22T13:13:22.891Z,7.20
2019-05-22T13:15:49.759Z,6.80
2019-05-22T13:18:18.116Z,6.70
2019-05-22T13:20:47.598Z,6.03
2019-05-22T13:23:15.031Z,6.97
2019-05-22T13:25:41.601Z,6.13
2019-05-22T13:28:10.962Z,6.70
2019-05-22T13:30:38.624Z,6.70
2019-05-22T13:33:10.134Z,6.07
2019-05-22T13:35:36.593Z,6.60
2019-05-22T13:38:03.929Z,6.70
2019-05-22T13:40:32.167Z,6.40
2019-05-22T13:42:59.996Z,6.60
2019-05-22T13:45:29.720Z,6.63
2019-05-22T13:47:55.041Z,6.60
2019-05-22T13:50:21.432Z,6.43
2019-05-22T13:52:48.548Z,7.00
2019-05-22T13:55:17.856Z,6.47
2019-05-22T13:57:45.955Z,6.70
2019-05-22T14:00:16.265Z,5.90
2019-05-22T14:02:42.634Z,6.50
2019-05-22T14:05:13.297Z,6.13
2019-05-22T14:07:37.391Z,6.53
2019-05-22T14:10:06.146Z,6.30
2019-05-22T14:12:32.702Z,6.30
2019-05-22T14:14:59.178Z,6.57
2019-05-22T14:17:25.506Z,6.47
2019-05-22T14:19:51.733Z,6.13
2019-05-22T14:22:18.082Z,6.07
2019-05-22T14:24:44.432Z,6.03
2019-05-22T14:27:10.718Z,6.50
2019-05-22T14:29:36.961Z,6.23
2019-05-22T14:32:03.995Z,5.70
2019-05-22T14:34:30.504Z,6.13
2019-05-22T14:36:57.743Z,6.60
2019-05-22T14:39:24.974Z,6.20
2019-05-22T14:41:51.306Z,6.20
2019-05-22T14:44:17.904Z,6.60
2019-05-22T14:46:44.265Z,6.73
2019-05-22T14:49:10.989Z,7.50
2019-05-22T14:51:37.909Z,6.20
2019-05-22T14:54:06.363Z,7.77
2019-05-22T14:56:32.888Z,6.50
2019-05-22T14:58:59.300Z,6.10
2019-05-22T15:01:26.425Z,6.40
2019-05-22T15:03:53.375Z,6.60
2019-05-22T15:06:19.991Z,5.90
2019-05-22T15:08:46.323Z,5.93
2019-05-22T15:11:14.183Z,5.80
2019-05-22T15:13:40.519Z,6.00
2019-05-22T15:16:06.937Z,5.70
2019-05-22T15:18:33.357Z,6.20
2019-05-22T15:21:01.614Z,6.07
2019-05-22T15:23:28.855Z,5.83
2019-05-22T15:25:55.483Z,5.83
2019-05-22T15:28:26.479Z,5.80
2019-05-22T15:30:51.716Z,4.67
2019-05-22T15:33:18.231Z,4.70
2019-05-22T15:35:48.021Z,4.77
2019-05-22T15:38:15.521Z,5.30
2019-05-22T15:40:44.658Z,5.10
2019-05-22T15:43:12.897Z,5.20
2019-05-22T15:45:41.281Z,5.23
2019-05-22T15:48:11.630Z,8.17
2019-05-22T15:50:41.701Z,5.20
2019-05-22T15:53:14.363Z,4.67
2019-05-22T15:55:40.687Z,4.90
2019-05-22T15:58:09.086Z,5.37
2019-05-22T16:00:38.228Z,4.60
2019-05-22T16:03:11.141Z,5.07
2019-05-22T16:05:38.181Z,4.67
2019-05-22T16:08:06.277Z,4.10
2019-05-22T16:10:33.026Z,4.10
2019-05-22T16:12:59.518Z,4.20
2019-05-22T16:15:26.051Z,4.07
2019-05-22T16:18:10.233Z,4.37
2019-05-22T16:20:23.244Z,3.70
2019-05-22T16:22:50.836Z,3.47
2019-05-22T16:25:18.476Z,3.97
2019-05-22T16:27:45.462Z,4.27
2019-05-22T16:30:12.834Z,3.40
2019-05-22T16:32:40.167Z,3.23
2019-05-22T16:35:07.657Z,3.10
2019-05-22T16:37:34.318Z,3.60
2019-05-22T16:40:00.661Z,3.50
2019-05-22T16:42:29.057Z,3.40
2019-05-22T16:44:55.512Z,4.20
2019-05-22T16:47:23.235Z,3.77
2019-05-22T16:49:51.080Z,3.63
2019-05-22T16:52:18.523Z,3.47
2019-05-22T16:54:45.562Z,3.20
2019-05-22T16:57:12.749Z,3.50
2019-05-22T16:59:40.579Z,3.83
2019-05-22T17:02:10.673Z,3.60
2019-05-22T17:04:37.308Z,3.30
2019-05-22T17:07:06.092Z,3.47
2019-05-22T17:09:32.783Z,3.37
2019-05-22T17:12:04.476Z,3.87
2019-05-22T17:14:28.909Z,3.37
2019-05-22T17:16:55.600Z,4.60
2019-05-22T17:19:27.000Z,3.80
2019-05-22T17:21:50.869Z,4.10
2019-05-22T17:24:19.541Z,4.60
2019-05-22T17:26:49.353Z,5.13
2019-05-22T17:29:15.830Z,3.90
2019-05-22T17:31:42.618Z,5.70
2019-05-22T17:34:27.747Z,4.83
2019-05-22T17:36:55.137Z,3.90
2019-05-22T17:39:22.034Z,3.83
2019-05-22T17:41:48.484Z,3.80
2019-05-22T17:44:15.986Z,4.00
2019-05-22T17:46:42.906Z,4.60
2019-05-22T17:49:09.720Z,4.60
2019-05-22T17:51:36.061Z,4.37
2019-05-22T17:54:03.088Z,4.07
2019-05-22T17:56:30.417Z,4.00
2019-05-22T17:58:56.867Z,4.53
2019-05-22T18:01:25.484Z,3.80
2019-05-22T18:03:51.682Z,3.77
2019-05-22T18:06:18.607Z,4.80
2019-05-22T18:08:44.927Z,4.50
2019-05-22T18:11:11.196Z,4.27
2019-05-22T18:13:53.587Z,4.30
2019-05-22T18:16:20.479Z,4.00
2019-05-22T18:18:47.151Z,3.80
2019-05-22T18:21:14.082Z,4.07
2019-05-22T18:23:40.514Z,3.83
2019-05-22T18:26:06.699Z,4.43
2019-05-22T18:28:33.542Z,4.50
2019-05-22T18:31:00.178Z,5.20
2019-05-22T18:33:26.735Z,4.33
2019-05-22T18:35:52.970Z,3.80
2019-05-22T18:38:19.571Z,4.10
2019-05-22T18:40:45.961Z,4.20
2019-05-22T18:43:12.215Z,4.30
2019-05-22T18:45:38.604Z,4.20
2019-05-22T18:48:05.642Z,4.27
2019-05-22T18:50:33.083Z,4.37
2019-05-22T18:52:59.948Z,4.10
2019-05-22T18:55:26.425Z,4.10
2019-05-22T18:57:53.034Z,3.83
2019-05-22T19:00:21.983Z,3.93
2019-05-22T19:02:48.881Z,3.77
2019-05-22T19:05:21.688Z,3.80
2019-05-22T19:07:48.645Z,3.80
2019-05-22T19:10:16.839Z,3.90
2019-05-22T19:12:43.491Z,3.60
2019-05-22T19:15:10.031Z,4.10
2019-05-22T19:17:36.394Z,4.10
2019-05-22T19:20:04.844Z,4.23
2019-05-22T19:22:31.598Z,4.13
2019-05-22T19:24:58.058Z,4.07
2019-05-22T19:27:24.339Z,4.13
2019-05-22T19:29:50.765Z,4.20
2019-05-22T19:32:18.116Z,4.87
2019-05-22T19:34:45.056Z,5.10
2019-05-22T19:37:12.593Z,4.80
2019-05-22T19:39:39.606Z,5.13
2019-05-22T19:42:07.141Z,5.30
2019-05-22T19:44:33.564Z,5.73
2019-05-22T19:46:59.969Z,6.30
2019-05-22T19:49:26.693Z,6.10
2019-05-22T19:51:55.034Z,5.73
2019-05-22T19:54:21.964Z,6.13
2019-05-22T19:56:48.616Z,5.60
2019-05-22T19:59:15.173Z,6.33
2019-05-22T20:01:42.019Z,5.60
2019-05-22T20:04:09.331Z,5.43
2019-05-22T20:06:38.285Z,6.00
2019-05-22T20:09:06.911Z,5.80
2019-05-22T20:11:33.550Z,5.43
2019-05-22T20:14:01.110Z,6.20
2019-05-22T20:16:27.685Z,6.27
2019-05-22T20:18:54.941Z,5.60
2019-05-22T20:21:21.514Z,5.97
2019-05-22T20:23:48.411Z,5.90
2019-05-22T20:26:16.394Z,5.90
2019-05-22T20:28:43.109Z,6.70
2019-05-22T20:31:09.571Z,6.60
2019-05-22T20:33:36.398Z,6.10
2019-05-22T20:36:03.575Z,6.37
2019-05-22T20:38:29.837Z,6.40
2019-05-22T20:40:56.111Z,6.60
2019-05-22T20:43:22.958Z,6.57
2019-05-22T20:45:50.014Z,6.50
2019-05-22T20:48:22.986Z,5.83
2019-05-22T20:50:50.102Z,7.30
2019-05-22T20:53:18.912Z,7.00
2019-05-22T20:55:45.851Z,7.43
2019-05-22T20:58:13.653Z,7.20
2019-05-22T21:00:41.005Z,7.80
2019-05-22T21:03:08.135Z,7.47
2019-05-22T21:05:35.070Z,7.43
2019-05-22T21:08:08.106Z,7.47
2019-05-22T21:10:35.015Z,7.60
2019-05-22T21:13:02.247Z,7.40
2019-05-22T21:15:30.949Z,7.40
2019-05-22T21:17:57.925Z,7.67
2019-05-22T21:20:26.277Z,7.60
2019-05-22T21:22:52.686Z,8.13
2019-05-22T21:25:20.291Z,7.97
2019-05-22T21:27:46.510Z,7.97
2019-05-22T21:30:14.251Z,7.67
2019-05-22T21:32:41.079Z,8.47
2019-05-22T21:35:08.595Z,7.60
2019-05-22T21:37:35.691Z,8.10
2019-05-22T21:40:02.989Z,7.97
2019-05-22T21:42:30.355Z,9.07
2019-05-22T21:44:56.738Z,9.63
2019-05-22T21:47:23.018Z,8.40
2019-05-22T21:49:51.737Z,8.07
2019-05-22T21:52:20.050Z,9.27
2019-05-22T21:54:46.579Z,9.03
2019-05-22T21:57:12.843Z,8.80
2019-05-22T21:59:39.992Z,9.77
2019-05-22T22:02:08.290Z,10.03
2019-05-22T22:04:36.108Z,10.37
2019-05-22T22:07:03.779Z,10.23
2019-05-22T22:09:31.236Z,9.87
2019-05-22T22:11:57.981Z,9.20
2019-05-22T22:14:24.184Z,8.90
2019-05-22T22:16:50.777Z,9.20
2019-05-22T22:19:17.760Z,9.47
2019-05-22T22:21:44.002Z,9.63
2019-05-22T22:24:11.065Z,10.70
2019-05-22T22:26:37.971Z,10.00
2019-05-22T22:29:04.995Z,10.93
2019-05-22T22:31:34.434Z,11.00
2019-05-22T22:34:09.019Z,10.60
2019-05-22T22:36:35.439Z,11.00
2019-05-22T22:39:02.452Z,10.83
2019-05-22T22:41:30.441Z,12.30
2019-05-22T22:43:57.754Z,13.03
2019-05-22T22:46:29.027Z,12.53
2019-05-22T22:48:57.133Z,12.97
2019-05-22T22:51:25.451Z,12.77
2019-05-22T22:53:54.172Z,12.47
2019-05-22T22:56:21.569Z,14.03
2019-05-22T22:58:47.896Z,12.23
2019-05-22T23:01:18.052Z,12.57
2019-05-22T23:03:46.460Z,12.00
2019-05-22T23:06:13.078Z,12.53
2019-05-22T23:08:40.914Z,14.00
2019-05-22T23:11:08.501Z,14.37
2019-05-22T23:13:34.897Z,16.00
2019-05-22T23:16:01.356Z,15.20
2019-05-22T23:18:42.174Z,16.63
2019-05-22T23:21:09.214Z,16.27
2019-05-22T23:23:35.974Z,15.23
2019-05-22T23:26:03.604Z,14.97
2019-05-22T23:28:34.805Z,13.07
2019-05-22T23:31:00.118Z,13.90
2019-05-22T23:33:28.264Z,13.90
2019-05-22T23:35:54.960Z,14.53
2019-05-22T23:38:21.592Z,15.93
2019-05-22T23:40:47.914Z,15.23
2019-05-22T23:43:14.540Z,16.37
2019-05-22T23:45:41.153Z,16.43
2019-05-22T23:48:10.361Z,17.17
2019-05-22T23:50:38.473Z,17.73
2019-05-22T23:53:05.109Z,18.13
2019-05-22T23:55:31.835Z,19.70
2019-05-22T23:57:58.816Z,18.50
